CheckWX is a tool to help pilots better visualize weather data.  It is not intended as a substitute for an official pre-flight weather briefing.

21:03:19 UTC

KALX METAR
Thomas C Russell Field Airport
Alexander City, Alabama, USA
Current

8 mins ago

KALX 232055Z AUTO 15005KT 10SM CLR 24/18 A2996 RMK AO2 T02360177
Observed
Feb-23 @ 20:55 UTC
Wind
  • 150° at 5 KTS
Visibility
10 SM
Flight Rules
VFR
Cloud Levels
  • Clear skies
Temperature
24°C / 75°F
Dewpoint
18°C / 64°F
Humidity
69%
Altimeter
29.96" Hg
Pressure
1014.52 hPa
Previous

28 mins ago

KALX 232035Z AUTO 12006KT 10SM SCT044 SCT055 23/18 A2997 RMK AO2 T02340175
Observed
Feb-23 @ 20:35 UTC
Wind
  • 120° at 6 KTS
Visibility
10 SM
Flight Rules
VFR
Cloud Levels
  • Scattered at 4,400' AGL
  • Scattered at 5,500' AGL
Temperature
23°C / 73°F
Dewpoint
18°C / 64°F
Humidity
74%
Altimeter
29.97" Hg
Pressure
1014.92 hPa
Previous

48 mins ago

KALX 232015Z AUTO 14006KT 10SM SCT046 SCT050 23/18 A2998 RMK AO2 T02330176
Observed
Feb-23 @ 20:15 UTC
Wind
  • 140° at 6 KTS
Visibility
10 SM
Flight Rules
VFR
Cloud Levels
  • Scattered at 4,600' AGL
  • Scattered at 5,000' AGL
Temperature
23°C / 73°F
Dewpoint
18°C / 64°F
Humidity
74%
Altimeter
29.98" Hg
Pressure
1015.22 hPa